sensor_id;sensor_type;location;lat;lon;timestamp;P1;durP1;ratioP1;P2;durP2;ratioP2
673;SDS011;319;48.764;9.174;2022-08-11T00:02:14;9.40;;;9.20;;
673;SDS011;319;48.764;9.174;2022-08-11T00:04:48;9.30;;;9.10;;
673;SDS011;319;48.764;9.174;2022-08-11T00:07:15;9.10;;;8.90;;
673;SDS011;319;48.764;9.174;2022-08-11T00:09:44;8.87;;;8.67;;
673;SDS011;319;48.764;9.174;2022-08-11T00:12:11;9.30;;;9.10;;
673;SDS011;319;48.764;9.174;2022-08-11T00:14:40;8.77;;;8.57;;
673;SDS011;319;48.764;9.174;2022-08-11T00:17:08;8.90;;;8.70;;
673;SDS011;319;48.764;9.174;2022-08-11T00:19:39;9.33;;;9.13;;
673;SDS011;319;48.764;9.174;2022-08-11T00:22:10;8.50;;;8.30;;
673;SDS011;319;48.764;9.174;2022-08-11T00:24:44;9.30;;;9.10;;
673;SDS011;319;48.764;9.174;2022-08-11T00:27:11;9.20;;;9.00;;
673;SDS011;319;48.764;9.174;2022-08-11T00:29:38;9.10;;;8.90;;
673;SDS011;319;48.764;9.174;2022-08-11T00:32:05;8.40;;;8.20;;
673;SDS011;319;48.764;9.174;2022-08-11T00:34:39;3.43;;;3.33;;
673;SDS011;319;48.764;9.174;2022-08-11T00:37:16;5.90;;;5.80;;
673;SDS011;319;48.764;9.174;2022-08-11T00:39:46;6.00;;;5.90;;
673;SDS011;319;48.764;9.174;2022-08-11T00:42:18;7.47;;;7.27;;
673;SDS011;319;48.764;9.174;2022-08-11T00:44:55;5.50;;;5.40;;
673;SDS011;319;48.764;9.174;2022-08-11T00:47:34;2.70;;;2.60;;
673;SDS011;319;48.764;9.174;2022-08-11T00:50:15;7.10;;;6.90;;
673;SDS011;319;48.764;9.174;2022-08-11T00:52:54;4.60;;;4.50;;
673;SDS011;319;48.764;9.174;2022-08-11T00:55:38;5.80;;;5.70;;
673;SDS011;319;48.764;9.174;2022-08-11T00:58:31;5.63;;;5.53;;
673;SDS011;319;48.764;9.174;2022-08-11T01:01:27;15.50;;;15.10;;
673;SDS011;319;48.764;9.174;2022-08-11T01:04:15;6.53;;;6.33;;
673;SDS011;319;48.764;9.174;2022-08-11T01:07:19;5.20;;;5.10;;
673;SDS011;319;48.764;9.174;2022-08-11T01:10:11;5.13;;;5.03;;
673;SDS011;319;48.764;9.174;2022-08-11T01:13:01;5.20;;;5.10;;
673;SDS011;319;48.764;9.174;2022-08-11T01:15:46;1.27;;;1.27;;
673;SDS011;319;48.764;9.174;2022-08-11T01:18:55;2.10;;;2.10;;
673;SDS011;319;48.764;9.174;2022-08-11T01:22:17;1.27;;;1.27;;
673;SDS011;319;48.764;9.174;2022-08-11T01:28:18;1.10;;;1.10;;
673;SDS011;319;48.764;9.174;2022-08-11T01:34:17;8.50;;;8.30;;
673;SDS011;319;48.764;9.174;2022-08-11T01:43:26;7.50;;;7.30;;
673;SDS011;319;48.764;9.174;2022-08-11T01:46:41;2.00;;;2.00;;
673;SDS011;319;48.764;9.174;2022-08-11T01:49:13;4.00;;;3.90;;
673;SDS011;319;48.764;9.174;2022-08-11T01:51:59;5.57;;;5.47;;
673;SDS011;319;48.764;9.174;2022-08-11T01:54:36;7.80;;;7.60;;
673;SDS011;319;48.764;9.174;2022-08-11T01:57:11;5.17;;;5.07;;
673;SDS011;319;48.764;9.174;2022-08-11T01:59:55;4.20;;;4.10;;
673;SDS011;319;48.764;9.174;2022-08-11T02:02:32;1.87;;;1.87;;
673;SDS011;319;48.764;9.174;2022-08-11T02:08:14;1.50;;;1.50;;
673;SDS011;319;48.764;9.174;2022-08-11T02:10:55;3.00;;;2.90;;
673;SDS011;319;48.764;9.174;2022-08-11T02:13:47;1.60;;;1.60;;
673;SDS011;319;48.764;9.174;2022-08-11T02:16:20;3.40;;;3.30;;
673;SDS011;319;48.764;9.174;2022-08-11T02:18:55;4.80;;;4.70;;
673;SDS011;319;48.764;9.174;2022-08-11T02:21:49;2.77;;;2.70;;
673;SDS011;319;48.764;9.174;2022-08-11T02:24:40;1.23;;;1.23;;
673;SDS011;319;48.764;9.174;2022-08-11T02:27:13;0.87;;;0.87;;
673;SDS011;319;48.764;9.174;2022-08-11T02:29:49;1.00;;;1.00;;
673;SDS011;319;48.764;9.174;2022-08-11T02:32:31;16.00;;;15.60;;
673;SDS011;319;48.764;9.174;2022-08-11T02:35:21;21.30;;;20.70;;
673;SDS011;319;48.764;9.174;2022-08-11T02:37:57;16.03;;;15.63;;
673;SDS011;319;48.764;9.174;2022-08-11T02:40:33;14.77;;;14.37;;
673;SDS011;319;48.764;9.174;2022-08-11T02:43:10;13.70;;;13.30;;
673;SDS011;319;48.764;9.174;2022-08-11T02:45:50;0.90;;;0.90;;
673;SDS011;319;48.764;9.174;2022-08-11T02:48:26;0.90;;;0.90;;
673;SDS011;319;48.764;9.174;2022-08-11T02:51:19;1.10;;;1.10;;
673;SDS011;319;48.764;9.174;2022-08-11T02:53:56;0.87;;;0.87;;
673;SDS011;319;48.764;9.174;2022-08-11T02:56:36;0.90;;;0.90;;
673;SDS011;319;48.764;9.174;2022-08-11T02:59:19;0.80;;;0.80;;
673;SDS011;319;48.764;9.174;2022-08-11T03:02:12;0.80;;;0.80;;
673;SDS011;319;48.764;9.174;2022-08-11T03:04:48;0.80;;;0.80;;
673;SDS011;319;48.764;9.174;2022-08-11T03:07:27;1.00;;;1.00;;
673;SDS011;319;48.764;9.174;2022-08-11T03:09:59;1.00;;;1.00;;
673;SDS011;319;48.764;9.174;2022-08-11T03:12:35;6.47;;;6.27;;
673;SDS011;319;48.764;9.174;2022-08-11T03:15:29;3.70;;;3.60;;
673;SDS011;319;48.764;9.174;2022-08-11T03:18:24;0.80;;;0.80;;
673;SDS011;319;48.764;9.174;2022-08-11T03:20:57;0.90;;;0.90;;
673;SDS011;319;48.764;9.174;2022-08-11T03:23:32;0.80;;;0.80;;
673;SDS011;319;48.764;9.174;2022-08-11T03:26:08;0.80;;;0.80;;
673;SDS011;319;48.764;9.174;2022-08-11T03:28:42;0.80;;;0.80;;
673;SDS011;319;48.764;9.174;2022-08-11T03:31:19;0.80;;;0.80;;
673;SDS011;319;48.764;9.174;2022-08-11T03:33:52;0.90;;;0.90;;
673;SDS011;319;48.764;9.174;2022-08-11T03:39:32;0.80;;;0.80;;
673;SDS011;319;48.764;9.174;2022-08-11T03:42:11;5.60;;;5.50;;
673;SDS011;319;48.764;9.174;2022-08-11T03:44:49;7.43;;;7.23;;
673;SDS011;319;48.764;9.174;2022-08-11T03:50:28;5.67;;;5.57;;
673;SDS011;319;48.764;9.174;2022-08-11T03:53:13;3.83;;;3.73;;
673;SDS011;319;48.764;9.174;2022-08-11T03:55:51;0.90;;;0.90;;
673;SDS011;319;48.764;9.174;2022-08-11T04:01:36;4.30;;;4.20;;
673;SDS011;319;48.764;9.174;2022-08-11T04:07:56;0.90;;;0.90;;
673;SDS011;319;48.764;9.174;2022-08-11T04:13:58;4.50;;;4.40;;
673;SDS011;319;48.764;9.174;2022-08-11T04:16:59;2.03;;;2.03;;
673;SDS011;319;48.764;9.174;2022-08-11T04:22:52;0.90;;;0.90;;
673;SDS011;319;48.764;9.174;2022-08-11T04:28:47;3.10;;;3.00;;
673;SDS011;319;48.764;9.174;2022-08-11T04:31:37;3.00;;;2.90;;
673;SDS011;319;48.764;9.174;2022-08-11T04:37:08;1.90;;;1.90;;
673;SDS011;319;48.764;9.174;2022-08-11T04:40:05;1.10;;;1.10;;
673;SDS011;319;48.764;9.174;2022-08-11T04:46:05;0.80;;;0.80;;
673;SDS011;319;48.764;9.174;2022-08-11T04:48:51;1.00;;;1.00;;
673;SDS011;319;48.764;9.174;2022-08-11T04:52:00;1.00;;;1.00;;
673;SDS011;319;48.764;9.174;2022-08-11T04:54:52;0.90;;;0.90;;
673;SDS011;319;48.764;9.174;2022-08-11T04:57:50;0.83;;;0.83;;
673;SDS011;319;48.764;9.174;2022-08-11T05:00:48;0.80;;;0.80;;
673;SDS011;319;48.764;9.174;2022-08-11T05:03:45;0.90;;;0.90;;
673;SDS011;319;48.764;9.174;2022-08-11T05:07:04;0.80;;;0.80;;
673;SDS011;319;48.764;9.174;2022-08-11T05:12:45;0.80;;;0.80;;
673;SDS011;319;48.764;9.174;2022-08-11T05:15:19;0.90;;;0.90;;
673;SDS011;319;48.764;9.174;2022-08-11T05:18:18;0.80;;;0.80;;
673;SDS011;319;48.764;9.174;2022-08-11T05:21:06;0.80;;;0.80;;
673;SDS011;319;48.764;9.174;2022-08-11T05:23:53;0.80;;;0.80;;
673;SDS011;319;48.764;9.174;2022-08-11T05:26:42;0.80;;;0.80;;
673;SDS011;319;48.764;9.174;2022-08-11T05:29:39;0.80;;;0.80;;
673;SDS011;319;48.764;9.174;2022-08-11T05:32:29;0.90;;;0.90;;
673;SDS011;319;48.764;9.174;2022-08-11T05:35:23;0.80;;;0.80;;
673;SDS011;319;48.764;9.174;2022-08-11T05:37:52;0.80;;;0.80;;
673;SDS011;319;48.764;9.174;2022-08-11T05:40:44;0.80;;;0.80;;
673;SDS011;319;48.764;9.174;2022-08-11T05:43:30;0.90;;;0.90;;
673;SDS011;319;48.764;9.174;2022-08-11T05:46:16;0.90;;;0.90;;
673;SDS011;319;48.764;9.174;2022-08-11T05:49:02;0.90;;;0.90;;
673;SDS011;319;48.764;9.174;2022-08-11T05:51:51;0.87;;;0.87;;
673;SDS011;319;48.764;9.174;2022-08-11T05:54:36;0.80;;;0.80;;
673;SDS011;319;48.764;9.174;2022-08-11T05:57:23;0.90;;;0.90;;
673;SDS011;319;48.764;9.174;2022-08-11T05:59:58;2.00;;;2.00;;
673;SDS011;319;48.764;9.174;2022-08-11T06:02:26;0.90;;;0.90;;
673;SDS011;319;48.764;9.174;2022-08-11T06:04:55;0.80;;;0.80;;
673;SDS011;319;48.764;9.174;2022-08-11T06:07:25;0.90;;;0.90;;
673;SDS011;319;48.764;9.174;2022-08-11T06:09:54;0.80;;;0.80;;
673;SDS011;319;48.764;9.174;2022-08-11T06:12:22;0.90;;;0.90;;
673;SDS011;319;48.764;9.174;2022-08-11T06:14:53;1.00;;;1.00;;
673;SDS011;319;48.764;9.174;2022-08-11T06:17:22;2.60;;;2.50;;
673;SDS011;319;48.764;9.174;2022-08-11T06:19:50;4.63;;;4.53;;
673;SDS011;319;48.764;9.174;2022-08-11T06:22:22;1.47;;;1.47;;
673;SDS011;319;48.764;9.174;2022-08-11T06:24:50;0.90;;;0.90;;
673;SDS011;319;48.764;9.174;2022-08-11T06:27:20;0.80;;;0.80;;
673;SDS011;319;48.764;9.174;2022-08-11T06:29:50;0.80;;;0.80;;
673;SDS011;319;48.764;9.174;2022-08-11T06:32:19;6.37;;;6.20;;
673;SDS011;319;48.764;9.174;2022-08-11T06:34:53;0.80;;;0.80;;
673;SDS011;319;48.764;9.174;2022-08-11T06:37:33;0.80;;;0.80;;
673;SDS011;319;48.764;9.174;2022-08-11T06:40:08;2.80;;;2.70;;
673;SDS011;319;48.764;9.174;2022-08-11T06:42:46;1.03;;;1.03;;
673;SDS011;319;48.764;9.174;2022-08-11T06:45:25;1.37;;;1.37;;
673;SDS011;319;48.764;9.174;2022-08-11T06:47:55;6.07;;;5.93;;
673;SDS011;319;48.764;9.174;2022-08-11T06:50:25;6.40;;;6.23;;
673;SDS011;319;48.764;9.174;2022-08-11T06:53:14;7.20;;;7.00;;
673;SDS011;319;48.764;9.174;2022-08-11T06:55:43;7.07;;;6.87;;
673;SDS011;319;48.764;9.174;2022-08-11T06:58:30;0.70;;;0.70;;
673;SDS011;319;48.764;9.174;2022-08-11T07:01:18;15.13;;;14.73;;
673;SDS011;319;48.764;9.174;2022-08-11T07:03:55;5.65;;;5.55;;
673;SDS011;319;48.764;9.174;2022-08-11T07:06:32;8.63;;;8.43;;
673;SDS011;319;48.764;9.174;2022-08-11T07:09:23;8.65;;;8.45;;
673;SDS011;319;48.764;9.174;2022-08-11T07:12:29;8.60;;;8.40;;
673;SDS011;319;48.764;9.174;2022-08-11T07:15:21;0.70;;;0.70;;
673;SDS011;319;48.764;9.174;2022-08-11T07:18:10;7.60;;;7.40;;
673;SDS011;319;48.764;9.174;2022-08-11T07:21:05;8.20;;;8.00;;
673;SDS011;319;48.764;9.174;2022-08-11T07:23:55;7.70;;;7.50;;
673;SDS011;319;48.764;9.174;2022-08-11T07:26:49;7.57;;;7.38;;
673;SDS011;319;48.764;9.174;2022-08-11T07:29:37;7.57;;;7.38;;
673;SDS011;319;48.764;9.174;2022-08-11T07:32:10;11.07;;;10.77;;
673;SDS011;319;48.764;9.174;2022-08-11T07:34:42;8.35;;;8.15;;
673;SDS011;319;48.764;9.174;2022-08-11T07:37:14;7.50;;;7.30;;
673;SDS011;319;48.764;9.174;2022-08-11T07:39:44;8.10;;;7.90;;
673;SDS011;319;48.764;9.174;2022-08-11T07:42:14;6.35;;;6.22;;
673;SDS011;319;48.764;9.174;2022-08-11T07:44:43;7.43;;;7.22;;
673;SDS011;319;48.764;9.174;2022-08-11T07:47:30;7.15;;;6.95;;
673;SDS011;319;48.764;9.174;2022-08-11T07:50:16;6.78;;;6.57;;
673;SDS011;319;48.764;9.174;2022-08-11T07:53:01;2.20;;;2.20;;
673;SDS011;319;48.764;9.174;2022-08-11T07:55:29;0.80;;;0.80;;
673;SDS011;319;48.764;9.174;2022-08-11T07:57:59;0.80;;;0.80;;
673;SDS011;319;48.764;9.174;2022-08-11T08:00:47;4.00;;;3.90;;
673;SDS011;319;48.764;9.174;2022-08-11T08:03:33;3.45;;;3.35;;
673;SDS011;319;48.764;9.174;2022-08-11T08:06:17;0.90;;;0.90;;
673;SDS011;319;48.764;9.174;2022-08-11T08:09:02;0.73;;;0.73;;
673;SDS011;319;48.764;9.174;2022-08-11T08:11:49;9.52;;;9.32;;
673;SDS011;319;48.764;9.174;2022-08-11T08:14:35;5.38;;;5.28;;
673;SDS011;319;48.764;9.174;2022-08-11T08:17:21;9.07;;;8.88;;
673;SDS011;319;48.764;9.174;2022-08-11T08:20:07;12.20;;;11.90;;
673;SDS011;319;48.764;9.174;2022-08-11T08:22:37;8.60;;;8.40;;
673;SDS011;319;48.764;9.174;2022-08-11T08:25:04;10.20;;;9.90;;
673;SDS011;319;48.764;9.174;2022-08-11T08:27:33;9.50;;;9.30;;
673;SDS011;319;48.764;9.174;2022-08-11T08:30:02;8.63;;;8.43;;
673;SDS011;319;48.764;9.174;2022-08-11T08:32:49;9.90;;;9.70;;
673;SDS011;319;48.764;9.174;2022-08-11T08:35:17;9.82;;;9.57;;
673;SDS011;319;48.764;9.174;2022-08-11T08:37:45;5.70;;;5.60;;
673;SDS011;319;48.764;9.174;2022-08-11T08:40:15;6.53;;;6.33;;
673;SDS011;319;48.764;9.174;2022-08-11T08:42:45;9.30;;;9.10;;
673;SDS011;319;48.764;9.174;2022-08-11T08:45:19;5.67;;;5.57;;
673;SDS011;319;48.764;9.174;2022-08-11T08:47:47;0.80;;;0.80;;
673;SDS011;319;48.764;9.174;2022-08-11T08:50:20;0.70;;;0.70;;
673;SDS011;319;48.764;9.174;2022-08-11T08:53:08;0.70;;;0.70;;
673;SDS011;319;48.764;9.174;2022-08-11T08:55:36;0.70;;;0.70;;
673;SDS011;319;48.764;9.174;2022-08-11T08:58:04;0.63;;;0.63;;
673;SDS011;319;48.764;9.174;2022-08-11T09:00:38;11.47;;;11.17;;
673;SDS011;319;48.764;9.174;2022-08-11T09:03:07;0.70;;;0.70;;
673;SDS011;319;48.764;9.174;2022-08-11T09:05:35;1.07;;;1.07;;
673;SDS011;319;48.764;9.174;2022-08-11T09:08:02;12.67;;;12.37;;
673;SDS011;319;48.764;9.174;2022-08-11T09:10:29;10.23;;;9.93;;
673;SDS011;319;48.764;9.174;2022-08-11T09:12:57;5.87;;;5.77;;
673;SDS011;319;48.764;9.174;2022-08-11T09:15:24;1.73;;;1.73;;
673;SDS011;319;48.764;9.174;2022-08-11T09:17:54;6.13;;;6.03;;
673;SDS011;319;48.764;9.174;2022-08-11T09:20:27;10.83;;;10.53;;
673;SDS011;319;48.764;9.174;2022-08-11T09:22:58;13.13;;;12.83;;
673;SDS011;319;48.764;9.174;2022-08-11T09:25:45;12.43;;;12.13;;
673;SDS011;319;48.764;9.174;2022-08-11T09:28:32;12.97;;;12.60;;
673;SDS011;319;48.764;9.174;2022-08-11T09:31:00;11.10;;;10.80;;
673;SDS011;319;48.764;9.174;2022-08-11T09:33:29;11.97;;;11.67;;
673;SDS011;319;48.764;9.174;2022-08-11T09:35:58;3.67;;;3.57;;
673;SDS011;319;48.764;9.174;2022-08-11T09:38:46;0.70;;;0.70;;
673;SDS011;319;48.764;9.174;2022-08-11T09:41:32;11.00;;;10.70;;
673;SDS011;319;48.764;9.174;2022-08-11T09:44:00;11.10;;;10.80;;
673;SDS011;319;48.764;9.174;2022-08-11T09:46:45;9.60;;;9.40;;
673;SDS011;319;48.764;9.174;2022-08-11T09:49:17;9.50;;;9.30;;
673;SDS011;319;48.764;9.174;2022-08-11T09:51:46;9.37;;;9.17;;
673;SDS011;319;48.764;9.174;2022-08-11T09:54:15;8.20;;;8.00;;
673;SDS011;319;48.764;9.174;2022-08-11T09:56:43;9.83;;;9.60;;
673;SDS011;319;48.764;9.174;2022-08-11T09:59:28;1.83;;;1.83;;
673;SDS011;319;48.764;9.174;2022-08-11T10:01:57;0.90;;;0.90;;
673;SDS011;319;48.764;9.174;2022-08-11T10:04:30;9.10;;;8.90;;
673;SDS011;319;48.764;9.174;2022-08-11T10:07:01;3.40;;;3.30;;
673;SDS011;319;48.764;9.174;2022-08-11T10:09:34;2.50;;;2.40;;
673;SDS011;319;48.764;9.174;2022-08-11T10:12:05;1.40;;;1.40;;
673;SDS011;319;48.764;9.174;2022-08-11T10:14:36;2.10;;;2.10;;
673;SDS011;319;48.764;9.174;2022-08-11T10:17:26;2.60;;;2.50;;
673;SDS011;319;48.764;9.174;2022-08-11T10:19:58;1.87;;;1.87;;
673;SDS011;319;48.764;9.174;2022-08-11T10:22:28;1.00;;;1.00;;
673;SDS011;319;48.764;9.174;2022-08-11T10:25:13;7.30;;;7.10;;
673;SDS011;319;48.764;9.174;2022-08-11T10:28:02;7.60;;;7.40;;
673;SDS011;319;48.764;9.174;2022-08-11T10:30:34;6.00;;;5.90;;
673;SDS011;319;48.764;9.174;2022-08-11T10:33:20;3.77;;;3.67;;
673;SDS011;319;48.764;9.174;2022-08-11T10:36:06;6.67;;;6.47;;
673;SDS011;319;48.764;9.174;2022-08-11T10:38:33;4.47;;;4.37;;
673;SDS011;319;48.764;9.174;2022-08-11T10:41:01;9.10;;;8.90;;
673;SDS011;319;48.764;9.174;2022-08-11T10:43:46;7.53;;;7.33;;
673;SDS011;319;48.764;9.174;2022-08-11T10:46:14;9.70;;;9.50;;
673;SDS011;319;48.764;9.174;2022-08-11T10:48:59;7.30;;;7.10;;
673;SDS011;319;48.764;9.174;2022-08-11T10:51:28;10.40;;;10.10;;
673;SDS011;319;48.764;9.174;2022-08-11T10:54:15;9.10;;;8.90;;
673;SDS011;319;48.764;9.174;2022-08-11T10:57:00;9.67;;;9.47;;
673;SDS011;319;48.764;9.174;2022-08-11T10:59:45;6.60;;;6.40;;
673;SDS011;319;48.764;9.174;2022-08-11T11:02:13;9.97;;;9.67;;
673;SDS011;319;48.764;9.174;2022-08-11T11:04:45;9.97;;;9.70;;
673;SDS011;319;48.764;9.174;2022-08-11T11:07:26;8.40;;;8.20;;
673;SDS011;319;48.764;9.174;2022-08-11T11:10:01;7.40;;;7.20;;
673;SDS011;319;48.764;9.174;2022-08-11T11:12:30;8.90;;;8.70;;
673;SDS011;319;48.764;9.174;2022-08-11T11:15:18;10.10;;;9.80;;
673;SDS011;319;48.764;9.174;2022-08-11T11:18:05;9.40;;;9.20;;
673;SDS011;319;48.764;9.174;2022-08-11T11:20:37;7.57;;;7.37;;
673;SDS011;319;48.764;9.174;2022-08-11T11:23:11;7.00;;;6.80;;
673;SDS011;319;48.764;9.174;2022-08-11T11:25:50;6.70;;;6.50;;
673;SDS011;319;48.764;9.174;2022-08-11T11:28:48;2.23;;;2.23;;
673;SDS011;319;48.764;9.174;2022-08-11T11:31:29;3.10;;;3.00;;
673;SDS011;319;48.764;9.174;2022-08-11T11:34:11;4.10;;;4.00;;
673;SDS011;319;48.764;9.174;2022-08-11T11:36:46;2.40;;;2.40;;
673;SDS011;319;48.764;9.174;2022-08-11T11:39:17;1.00;;;1.00;;
673;SDS011;319;48.764;9.174;2022-08-11T11:41:45;4.00;;;3.90;;
673;SDS011;319;48.764;9.174;2022-08-11T11:44:13;4.57;;;4.47;;
673;SDS011;319;48.764;9.174;2022-08-11T11:46:40;5.30;;;5.20;;
673;SDS011;319;48.764;9.174;2022-08-11T11:49:10;6.23;;;6.10;;
673;SDS011;319;48.764;9.174;2022-08-11T11:51:38;6.90;;;6.70;;
673;SDS011;319;48.764;9.174;2022-08-11T11:54:05;4.93;;;4.83;;
673;SDS011;319;48.764;9.174;2022-08-11T11:56:35;4.10;;;4.00;;
673;SDS011;319;48.764;9.174;2022-08-11T11:59:03;4.63;;;4.53;;
673;SDS011;319;48.764;9.174;2022-08-11T12:01:48;5.10;;;5.00;;
673;SDS011;319;48.764;9.174;2022-08-11T12:04:15;3.97;;;3.87;;
673;SDS011;319;48.764;9.174;2022-08-11T12:06:45;4.10;;;4.00;;
673;SDS011;319;48.764;9.174;2022-08-11T12:09:12;3.10;;;3.00;;
673;SDS011;319;48.764;9.174;2022-08-11T12:11:43;2.20;;;2.20;;
673;SDS011;319;48.764;9.174;2022-08-11T12:14:28;2.40;;;2.40;;
673;SDS011;319;48.764;9.174;2022-08-11T12:16:55;2.23;;;2.23;;
673;SDS011;319;48.764;9.174;2022-08-11T12:19:24;1.83;;;1.83;;
673;SDS011;319;48.764;9.174;2022-08-11T12:21:53;2.30;;;2.30;;
673;SDS011;319;48.764;9.174;2022-08-11T12:24:39;2.90;;;2.80;;
673;SDS011;319;48.764;9.174;2022-08-11T12:27:25;3.50;;;3.40;;
673;SDS011;319;48.764;9.174;2022-08-11T12:29:55;6.50;;;6.30;;
673;SDS011;319;48.764;9.174;2022-08-11T12:32:24;6.13;;;6.00;;
673;SDS011;319;48.764;9.174;2022-08-11T12:34:54;6.10;;;6.00;;
673;SDS011;319;48.764;9.174;2022-08-11T12:37:22;6.63;;;6.43;;
673;SDS011;319;48.764;9.174;2022-08-11T12:39:55;4.70;;;4.60;;
673;SDS011;319;48.764;9.174;2022-08-11T12:42:56;4.50;;;4.40;;
673;SDS011;319;48.764;9.174;2022-08-11T12:45:45;5.47;;;5.37;;
673;SDS011;319;48.764;9.174;2022-08-11T12:48:14;4.50;;;4.40;;
673;SDS011;319;48.764;9.174;2022-08-11T12:51:02;4.47;;;4.37;;
673;SDS011;319;48.764;9.174;2022-08-11T12:53:51;5.53;;;5.43;;
673;SDS011;319;48.764;9.174;2022-08-11T12:56:20;7.70;;;7.50;;
673;SDS011;319;48.764;9.174;2022-08-11T12:59:11;0.80;;;0.80;;
673;SDS011;319;48.764;9.174;2022-08-11T13:01:57;4.20;;;4.10;;
673;SDS011;319;48.764;9.174;2022-08-11T13:04:41;8.60;;;8.40;;
673;SDS011;319;48.764;9.174;2022-08-11T13:07:25;5.30;;;5.20;;
673;SDS011;319;48.764;9.174;2022-08-11T13:09:56;6.60;;;6.40;;
673;SDS011;319;48.764;9.174;2022-08-11T13:12:25;4.67;;;4.57;;
673;SDS011;319;48.764;9.174;2022-08-11T13:15:12;8.17;;;7.97;;
673;SDS011;319;48.764;9.174;2022-08-11T13:17:41;5.90;;;5.80;;
673;SDS011;319;48.764;9.174;2022-08-11T13:20:09;5.60;;;5.50;;
673;SDS011;319;48.764;9.174;2022-08-11T13:22:37;7.10;;;6.90;;
673;SDS011;319;48.764;9.174;2022-08-11T13:25:09;6.77;;;6.57;;
673;SDS011;319;48.764;9.174;2022-08-11T13:27:37;6.50;;;6.30;;
673;SDS011;319;48.764;9.174;2022-08-11T13:30:05;5.03;;;4.93;;
673;SDS011;319;48.764;9.174;2022-08-11T13:32:52;3.20;;;3.10;;
673;SDS011;319;48.764;9.174;2022-08-11T13:35:20;2.70;;;2.60;;
673;SDS011;319;48.764;9.174;2022-08-11T13:37:48;1.93;;;1.93;;
673;SDS011;319;48.764;9.174;2022-08-11T13:40:17;2.00;;;2.00;;
673;SDS011;319;48.764;9.174;2022-08-11T13:42:45;4.00;;;3.90;;
673;SDS011;319;48.764;9.174;2022-08-11T13:45:14;2.80;;;2.70;;
673;SDS011;319;48.764;9.174;2022-08-11T13:47:41;4.67;;;4.57;;
673;SDS011;319;48.764;9.174;2022-08-11T13:50:10;4.10;;;4.00;;
673;SDS011;319;48.764;9.174;2022-08-11T13:52:40;4.40;;;4.30;;
673;SDS011;319;48.764;9.174;2022-08-11T13:55:09;4.60;;;4.50;;
673;SDS011;319;48.764;9.174;2022-08-11T13:57:46;4.20;;;4.10;;
673;SDS011;319;48.764;9.174;2022-08-11T14:00:15;3.20;;;3.10;;
673;SDS011;319;48.764;9.174;2022-08-11T14:02:42;3.77;;;3.67;;
673;SDS011;319;48.764;9.174;2022-08-11T14:05:15;3.27;;;3.17;;
673;SDS011;319;48.764;9.174;2022-08-11T14:07:45;2.80;;;2.70;;
673;SDS011;319;48.764;9.174;2022-08-11T14:10:15;7.50;;;7.30;;
673;SDS011;319;48.764;9.174;2022-08-11T14:12:46;1.10;;;1.10;;
673;SDS011;319;48.764;9.174;2022-08-11T14:16:03;0.70;;;0.70;;
673;SDS011;319;48.764;9.174;2022-08-11T14:18:33;0.70;;;0.70;;
673;SDS011;319;48.764;9.174;2022-08-11T14:21:02;0.60;;;0.60;;
673;SDS011;319;48.764;9.174;2022-08-11T14:23:49;0.70;;;0.70;;
673;SDS011;319;48.764;9.174;2022-08-11T14:26:19;0.70;;;0.70;;
673;SDS011;319;48.764;9.174;2022-08-11T14:28:56;0.70;;;0.70;;
673;SDS011;319;48.764;9.174;2022-08-11T14:31:27;0.70;;;0.70;;
673;SDS011;319;48.764;9.174;2022-08-11T14:33:56;7.37;;;7.17;;
673;SDS011;319;48.764;9.174;2022-08-11T14:36:32;8.17;;;7.97;;
673;SDS011;319;48.764;9.174;2022-08-11T14:39:03;8.90;;;8.70;;
673;SDS011;319;48.764;9.174;2022-08-11T14:41:35;9.37;;;9.17;;
673;SDS011;319;48.764;9.174;2022-08-11T14:44:20;8.80;;;8.60;;
673;SDS011;319;48.764;9.174;2022-08-11T14:47:06;9.17;;;8.97;;
673;SDS011;319;48.764;9.174;2022-08-11T14:49:38;5.20;;;5.10;;
673;SDS011;319;48.764;9.174;2022-08-11T14:52:07;8.23;;;8.03;;
673;SDS011;319;48.764;9.174;2022-08-11T14:54:36;7.67;;;7.47;;
673;SDS011;319;48.764;9.174;2022-08-11T14:57:23;8.50;;;8.30;;
673;SDS011;319;48.764;9.174;2022-08-11T14:59:52;7.40;;;7.20;;
673;SDS011;319;48.764;9.174;2022-08-11T15:02:23;8.27;;;8.07;;
673;SDS011;319;48.764;9.174;2022-08-11T15:05:07;8.33;;;8.13;;
673;SDS011;319;48.764;9.174;2022-08-11T15:07:37;7.40;;;7.20;;
673;SDS011;319;48.764;9.174;2022-08-11T15:10:05;6.70;;;6.50;;
673;SDS011;319;48.764;9.174;2022-08-11T15:12:35;7.67;;;7.47;;
673;SDS011;319;48.764;9.174;2022-08-11T15:15:05;8.53;;;8.33;;
673;SDS011;319;48.764;9.174;2022-08-11T15:17:53;6.27;;;6.10;;
673;SDS011;319;48.764;9.174;2022-08-11T15:20:21;6.80;;;6.60;;
673;SDS011;319;48.764;9.174;2022-08-11T15:23:09;8.40;;;8.20;;
673;SDS011;319;48.764;9.174;2022-08-11T15:25:55;7.73;;;7.53;;
673;SDS011;319;48.764;9.174;2022-08-11T15:28:24;8.07;;;7.87;;
673;SDS011;319;48.764;9.174;2022-08-11T15:31:13;8.00;;;7.80;;
673;SDS011;319;48.764;9.174;2022-08-11T15:34:00;7.73;;;7.53;;
673;SDS011;319;48.764;9.174;2022-08-11T15:36:48;7.57;;;7.37;;
673;SDS011;319;48.764;9.174;2022-08-11T15:39:40;7.73;;;7.53;;
673;SDS011;319;48.764;9.174;2022-08-11T15:42:26;8.20;;;8.00;;
673;SDS011;319;48.764;9.174;2022-08-11T15:45:13;7.90;;;7.70;;
673;SDS011;319;48.764;9.174;2022-08-11T15:48:01;7.50;;;7.30;;
673;SDS011;319;48.764;9.174;2022-08-11T15:50:33;7.70;;;7.50;;
673;SDS011;319;48.764;9.174;2022-08-11T15:53:04;7.40;;;7.20;;
673;SDS011;319;48.764;9.174;2022-08-11T15:55:37;7.90;;;7.70;;
673;SDS011;319;48.764;9.174;2022-08-11T15:58:08;8.50;;;8.30;;
673;SDS011;319;48.764;9.174;2022-08-11T16:00:56;8.03;;;7.83;;
673;SDS011;319;48.764;9.174;2022-08-11T16:03:44;7.03;;;6.83;;
673;SDS011;319;48.764;9.174;2022-08-11T16:06:33;5.50;;;5.40;;
673;SDS011;319;48.764;9.174;2022-08-11T16:09:02;6.50;;;6.30;;
673;SDS011;319;48.764;9.174;2022-08-11T16:11:33;8.50;;;8.30;;
673;SDS011;319;48.764;9.174;2022-08-11T16:14:01;8.17;;;7.97;;
673;SDS011;319;48.764;9.174;2022-08-11T16:16:47;8.83;;;8.63;;
673;SDS011;319;48.764;9.174;2022-08-11T16:19:17;7.80;;;7.60;;
673;SDS011;319;48.764;9.174;2022-08-11T16:21:45;5.83;;;5.73;;
673;SDS011;319;48.764;9.174;2022-08-11T16:24:14;6.67;;;6.47;;
673;SDS011;319;48.764;9.174;2022-08-11T16:26:46;2.07;;;2.07;;
673;SDS011;319;48.764;9.174;2022-08-11T16:29:14;2.10;;;2.10;;
673;SDS011;319;48.764;9.174;2022-08-11T16:31:41;7.83;;;7.63;;
673;SDS011;319;48.764;9.174;2022-08-11T16:34:29;2.80;;;2.70;;
673;SDS011;319;48.764;9.174;2022-08-11T16:37:15;1.60;;;1.60;;
673;SDS011;319;48.764;9.174;2022-08-11T16:40:01;1.57;;;1.57;;
673;SDS011;319;48.764;9.174;2022-08-11T16:42:30;1.40;;;1.40;;
673;SDS011;319;48.764;9.174;2022-08-11T16:45:15;1.20;;;1.20;;
673;SDS011;319;48.764;9.174;2022-08-11T16:48:01;3.00;;;2.90;;
673;SDS011;319;48.764;9.174;2022-08-11T16:50:29;2.77;;;2.67;;
673;SDS011;319;48.764;9.174;2022-08-11T16:52:57;3.20;;;3.10;;
673;SDS011;319;48.764;9.174;2022-08-11T16:55:24;0.70;;;0.70;;
673;SDS011;319;48.764;9.174;2022-08-11T16:57:52;0.60;;;0.60;;
673;SDS011;319;48.764;9.174;2022-08-11T17:00:36;0.70;;;0.70;;
673;SDS011;319;48.764;9.174;2022-08-11T17:03:05;0.70;;;0.70;;
673;SDS011;319;48.764;9.174;2022-08-11T17:05:51;0.70;;;0.70;;
673;SDS011;319;48.764;9.174;2022-08-11T17:08:36;0.70;;;0.70;;
673;SDS011;319;48.764;9.174;2022-08-11T17:11:26;0.70;;;0.70;;
673;SDS011;319;48.764;9.174;2022-08-11T17:14:16;0.80;;;0.80;;
673;SDS011;319;48.764;9.174;2022-08-11T17:16:48;0.80;;;0.80;;
673;SDS011;319;48.764;9.174;2022-08-11T17:19:24;0.70;;;0.70;;
673;SDS011;319;48.764;9.174;2022-08-11T17:21:54;0.70;;;0.70;;
673;SDS011;319;48.764;9.174;2022-08-11T17:24:40;0.70;;;0.70;;
673;SDS011;319;48.764;9.174;2022-08-11T17:27:11;0.80;;;0.80;;
673;SDS011;319;48.764;9.174;2022-08-11T17:29:43;0.70;;;0.70;;
673;SDS011;319;48.764;9.174;2022-08-11T17:32:15;0.70;;;0.70;;
673;SDS011;319;48.764;9.174;2022-08-11T17:35:17;0.70;;;0.70;;
673;SDS011;319;48.764;9.174;2022-08-11T17:37:56;0.70;;;0.70;;
673;SDS011;319;48.764;9.174;2022-08-11T17:40:26;6.57;;;6.37;;
673;SDS011;319;48.764;9.174;2022-08-11T17:42:55;3.77;;;3.67;;